Time;durP1;ratioP1;P1;durP2;ratioP2;P2;SDS_P1;SDS_P2;PMS_P1;PMS_P2;Temp;Humidity;BMP_temperature;BMP_pressure;BME280_temperature;BME280_humidity;BME280_pressure;Samples;Min_cycle;Max_cycle;Signal;HPM_P1;HPM_P2
2022/03/01 00:01:22;;;;;;;;;;;0.90;67.90;;;;;;5012836;28;19909;-74
2022/03/01 00:03:47;;;;;;;;;;;0.80;67.90;;;;;;5014001;28;20040;-74
2022/03/01 00:06:13;;;;;;;;;;;0.90;68.50;;;;;;5012535;28;20281;-73
2022/03/01 00:08:38;;;;;;;;;;;1.00;68.00;;;;;;5014152;28;19914;-74
2022/03/01 00:11:04;;;;;;;;;;;1.10;67.70;;;;;;5012810;28;19964;-74
2022/03/01 00:13:30;;;;;;;;;;;1.20;67.70;;;;;;5013725;28;20365;-74
2022/03/01 00:15:55;;;;;;;;;;;1.30;67.10;;;;;;5013627;28;19964;-74
2022/03/01 00:18:21;;;;;;;;;;;1.30;66.60;;;;;;5012477;28;20336;-74
2022/03/01 00:20:46;;;;;;;;;;;1.20;66.70;;;;;;5013840;28;20208;-74
2022/03/01 00:23:12;;;;;;;;;;;1.00;67.40;;;;;;5012380;28;19971;-74
2022/03/01 00:25:38;;;;;;;;;;;0.70;68.70;;;;;;4995963;28;19909;-74
2022/03/01 00:28:03;;;;;;;;;;;0.50;69.30;;;;;;5013599;28;19909;-74
2022/03/01 00:30:29;;;;;;;;;;;0.50;70.10;;;;;;5013598;28;19913;-74
2022/03/01 00:32:54;;;;;;;;;;;0.50;69.90;;;;;;5012133;28;19961;-74
2022/03/01 00:35:20;;;;;;;;;;;0.50;69.70;;;;;;5013681;28;19979;-74
2022/03/01 00:37:46;;;;;;;;;;;0.50;69.50;;;;;;5012135;28;19910;-74
2022/03/01 00:40:12;;;;;;;;;;;0.70;70.00;;;;;;5012340;28;19909;-75
2022/03/01 00:42:38;;;;;;;;;;;0.80;68.90;;;;;;5013880;28;19988;-74
2022/03/01 00:45:03;;;;;;;;;;;0.80;68.40;;;;;;4996416;28;20566;-71
2022/03/01 00:47:29;;;;;;;;;;;0.70;68.70;;;;;;5013499;28;19920;-73
2022/03/01 00:49:55;;;;;;;;;;;0.60;68.80;;;;;;5013517;28;19915;-73
2022/03/01 00:52:20;;;;;;;;;;;0.60;69.20;;;;;;5012195;28;19913;-73
2022/03/01 00:54:46;;;;;;;;;;;0.60;69.50;;;;;;5013378;28;19953;-73
2022/03/01 00:57:12;;;;;;;;;;;0.70;69.40;;;;;;5013302;28;20004;-73
2022/03/01 00:59:37;;;;;;;;;;;0.90;69.10;;;;;;5012064;28;19993;-74
2022/03/01 01:02:03;;;;;;;;;;;1.10;68.00;;;;;;4995485;28;19915;-73
2022/03/01 01:04:29;;;;;;;;;;;1.10;67.40;;;;;;5012959;28;19913;-74
2022/03/01 01:06:55;;;;;;;;;;;1.00;67.50;;;;;;5062163;23;20425;-76
2022/03/01 01:09:20;;;;;;;;;;;1.00;67.90;;;;;;5038297;28;19909;-76
2022/03/01 01:11:46;;;;;;;;;;;0.90;67.50;;;;;;5055227;28;19909;-76
2022/03/01 01:14:12;;;;;;;;;;;0.70;68.40;;;;;;5056116;28;19921;-76
2022/03/01 01:16:37;;;;;;;;;;;0.50;68.90;;;;;;5055863;28;19915;-76
2022/03/01 01:19:03;;;;;;;;;;;0.40;69.10;;;;;;5055980;28;20295;-77
2022/03/01 01:22:39;;;;;;;;;;;0.40;69.60;;;;;;5055992;28;19909;-76
2022/03/01 01:24:14;;;;;;;;;;;0.50;69.50;;;;;;5055488;28;20356;-77
2022/03/01 01:26:40;;;;;;;;;;;0.50;69.50;;;;;;5056072;28;19915;-76
2022/03/01 01:29:05;;;;;;;;;;;0.50;69.10;;;;;;5056288;28;19979;-77
2022/03/01 01:31:31;;;;;;;;;;;0.40;69.10;;;;;;5071520;28;19916;-77
2022/03/01 01:33:56;;;;;;;;;;;0.50;69.00;;;;;;5055497;28;19917;-77
2022/03/01 01:36:25;;;;;;;;;;;0.60;68.70;;;;;;5055670;28;19908;-77
2022/03/01 01:38:53;;;;;;;;;;;0.50;68.50;;;;;;5056099;28;19935;-77
2022/03/01 01:41:19;;;;;;;;;;;0.20;69.20;;;;;;5056116;28;19963;-77
2022/03/01 01:43:44;;;;;;;;;;;0.10;70.20;;;;;;5037397;28;19913;-77
2022/03/01 01:46:10;;;;;;;;;;;0.20;70.50;;;;;;5037597;28;19935;-77
2022/03/01 01:48:36;;;;;;;;;;;0.10;70.20;;;;;;5053950;28;19912;-77
2022/03/01 01:51:01;;;;;;;;;;;0.20;70.70;;;;;;5074658;28;20364;-77
2022/03/01 01:53:27;;;;;;;;;;;0.30;70.10;;;;;;5057576;28;19913;-77
2022/03/01 01:55:53;;;;;;;;;;;0.20;70.10;;;;;;5040884;28;19909;-77
2022/03/01 01:58:19;;;;;;;;;;;0.10;70.50;;;;;;5059122;28;19948;-77
2022/03/01 02:00:45;;;;;;;;;;;0.00;70.50;;;;;;5058234;28;19913;-77
2022/03/01 02:03:10;;;;;;;;;;;-0.10;70.40;;;;;;5056838;28;19909;-77
2022/03/01 02:05:36;;;;;;;;;;;-0.30;71.30;;;;;;5057085;28;19917;-77
2022/03/01 02:08:02;;;;;;;;;;;-0.40;72.30;;;;;;5059036;28;19909;-77
2022/03/01 02:10:28;;;;;;;;;;;-0.50;71.90;;;;;;5059229;28;19908;-77
2022/03/01 02:12:56;;;;;;;;;;;-0.60;72.20;;;;;;5059009;28;20360;-77
2022/03/01 02:15:23;;;;;;;;;;;-0.50;72.90;;;;;;5059608;28;19909;-77
2022/03/01 02:17:48;;;;;;;;;;;-0.60;72.80;;;;;;5058515;28;19913;-77
2022/03/01 02:20:15;;;;;;;;;;;-0.50;73.10;;;;;;5057852;28;19915;-77
2022/03/01 02:22:41;;;;;;;;;;;-0.30;72.40;;;;;;5057898;28;20007;-77
2022/03/01 02:25:07;;;;;;;;;;;-0.30;72.60;;;;;;5057792;28;19947;-77
2022/03/01 02:27:33;;;;;;;;;;;-0.30;71.90;;;;;;5041099;28;19915;-77
2022/03/01 02:29:58;;;;;;;;;;;-0.30;71.90;;;;;;5059700;28;20447;-77
2022/03/01 02:32:24;;;;;;;;;;;-0.50;72.30;;;;;;5041196;28;20363;-78
2022/03/01 02:34:50;;;;;;;;;;;-0.50;72.50;;;;;;5058936;28;19916;-77
2022/03/01 02:37:15;;;;;;;;;;;-0.50;72.50;;;;;;5058787;28;20348;-77
2022/03/01 02:39:41;;;;;;;;;;;-0.60;72.60;;;;;;5058978;28;19940;-77
2022/03/01 02:42:07;;;;;;;;;;;-0.50;73.30;;;;;;5057343;28;20368;-77
2022/03/01 02:44:32;;;;;;;;;;;-0.60;73.40;;;;;;5057558;28;19912;-77
2022/03/01 02:46:58;;;;;;;;;;;-0.70;73.70;;;;;;5056355;28;19931;-77
2022/03/01 02:49:23;;;;;;;;;;;-0.60;73.80;;;;;;5058493;28;19908;-77
2022/03/01 02:51:49;;;;;;;;;;;-0.60;73.40;;;;;;5057349;28;19920;-76
2022/03/01 02:54:15;;;;;;;;;;;-0.40;73.40;;;;;;5057275;28;20000;-77
2022/03/01 02:56:40;;;;;;;;;;;-0.40;72.60;;;;;;5058220;28;19999;-77
2022/03/01 02:59:07;;;;;;;;;;;-0.60;72.50;;;;;;5058422;28;19909;-77
2022/03/01 03:01:33;;;;;;;;;;;-0.60;72.60;;;;;;5057417;28;19995;-77
2022/03/01 03:03:58;;;;;;;;;;;-0.60;72.60;;;;;;5058236;28;19955;-77
2022/03/01 03:06:24;;;;;;;;;;;-0.50;72.70;;;;;;5056597;28;20008;-77
2022/03/01 03:08:50;;;;;;;;;;;-0.80;72.90;;;;;;5056326;28;19948;-77
2022/03/01 03:11:16;;;;;;;;;;;-0.90;73.10;;;;;;5057651;28;20349;-77
2022/03/01 03:13:41;;;;;;;;;;;-0.80;73.50;;;;;;5057594;28;19939;-77
2022/03/01 03:16:07;;;;;;;;;;;-0.80;73.30;;;;;;5057537;28;20111;-77
2022/03/01 03:18:33;;;;;;;;;;;-0.80;73.30;;;;;;5057573;28;19909;-77
2022/03/01 03:20:59;;;;;;;;;;;-0.70;73.80;;;;;;5039834;28;19978;-77
2022/03/01 03:23:25;;;;;;;;;;;-0.60;73.00;;;;;;5056877;28;19908;-77
2022/03/01 03:25:50;;;;;;;;;;;-0.60;72.40;;;;;;5057579;28;19912;-77
2022/03/01 03:28:16;;;;;;;;;;;-0.60;72.80;;;;;;5057585;28;19915;-77
2022/03/01 03:30:42;;;;;;;;;;;-0.40;72.60;;;;;;5071840;28;19908;-77
2022/03/01 03:33:08;;;;;;;;;;;-0.50;72.20;;;;;;5056152;28;19912;-77
2022/03/01 03:35:33;;;;;;;;;;;-0.40;72.40;;;;;;5055363;28;19909;-77
2022/03/01 03:37:59;;;;;;;;;;;-0.40;72.10;;;;;;5056888;28;19917;-77
2022/03/01 03:40:24;;;;;;;;;;;-0.50;71.90;;;;;;5072598;28;19920;-77
2022/03/01 03:42:50;;;;;;;;;;;-0.90;72.80;;;;;;5055965;28;19961;-77
2022/03/01 03:45:16;;;;;;;;;;;-1.00;73.40;;;;;;5055812;28;19912;-77
2022/03/01 03:47:42;;;;;;;;;;;-1.00;73.90;;;;;;5055502;28;19913;-77
2022/03/01 03:50:09;;;;;;;;;;;-1.10;73.90;;;;;;5056837;28;19909;-77
2022/03/01 03:52:36;;;;;;;;;;;-1.10;74.40;;;;;;5056550;28;19924;-77
2022/03/01 03:55:01;;;;;;;;;;;-1.00;74.50;;;;;;5055110;28;20012;-77
2022/03/01 03:57:27;;;;;;;;;;;-0.90;74.10;;;;;;5055165;28;19944;-77
2022/03/01 03:59:53;;;;;;;;;;;-1.10;73.60;;;;;;5055088;28;20291;-77
2022/03/01 04:02:19;;;;;;;;;;;-1.20;74.10;;;;;;5056017;28;20003;-77
2022/03/01 04:04:44;;;;;;;;;;;-1.10;74.10;;;;;;5056525;28;19940;-77
2022/03/01 04:07:10;;;;;;;;;;;-1.20;74.00;;;;;;5056058;28;19960;-77
2022/03/01 04:09:36;;;;;;;;;;;-1.20;74.70;;;;;;5055088;28;19909;-77
2022/03/01 04:12:01;;;;;;;;;;;-1.10;74.30;;;;;;5055594;28;19962;-77
2022/03/01 04:14:28;;;;;;;;;;;-1.30;74.60;;;;;;5055280;28;20380;-77
2022/03/01 04:16:53;;;;;;;;;;;-1.30;75.00;;;;;;5056245;28;20316;-77
2022/03/01 04:19:19;;;;;;;;;;;-1.40;74.90;;;;;;5038914;28;19909;-77
2022/03/01 04:21:44;;;;;;;;;;;-1.50;75.30;;;;;;5055234;28;19913;-77
2022/03/01 04:24:10;;;;;;;;;;;-1.50;75.40;;;;;;5056248;28;19920;-77
2022/03/01 04:26:36;;;;;;;;;;;-1.50;75.80;;;;;;5038224;28;19945;-77
2022/03/01 04:29:03;;;;;;;;;;;-1.40;76.50;;;;;;5056123;28;19908;-77
2022/03/01 04:31:29;;;;;;;;;;;-1.10;75.50;;;;;;5056338;28;20323;-77
2022/03/01 04:33:56;;;;;;;;;;;-0.90;74.50;;;;;;5056216;28;19916;-77
2022/03/01 04:36:22;;;;;;;;;;;-1.20;74.00;;;;;;5054518;28;19995;-77
2022/03/01 04:38:47;;;;;;;;;;;-1.50;75.40;;;;;;5071213;28;20320;-77
2022/03/01 04:41:13;;;;;;;;;;;-1.60;75.70;;;;;;5071220;28;19909;-77
2022/03/01 04:43:39;;;;;;;;;;;-1.30;76.20;;;;;;5055465;28;20280;-77
2022/03/01 04:46:05;;;;;;;;;;;-1.20;75.30;;;;;;5053826;28;19912;-77
2022/03/01 04:48:30;;;;;;;;;;;-1.30;75.20;;;;;;5054656;28;20311;-77
2022/03/01 04:50:56;;;;;;;;;;;-1.10;75.40;;;;;;5055403;28;20421;-77
2022/03/01 04:53:22;;;;;;;;;;;-1.10;74.30;;;;;;5037270;28;19920;-77
2022/03/01 04:55:47;;;;;;;;;;;-1.10;75.10;;;;;;5054228;28;19944;-77
2022/03/01 04:58:13;;;;;;;;;;;-1.10;75.30;;;;;;5054760;28;19915;-76
2022/03/01 05:00:39;;;;;;;;;;;-1.10;75.20;;;;;;5055454;28;19915;-77
2022/03/01 05:03:05;;;;;;;;;;;-1.20;75.40;;;;;;5055147;28;19946;-77
2022/03/01 05:05:30;;;;;;;;;;;-1.10;75.50;;;;;;5070352;28;19963;-77
2022/03/01 05:07:56;;;;;;;;;;;-1.00;74.80;;;;;;5054198;28;19909;-77
2022/03/01 05:10:22;;;;;;;;;;;-1.00;74.80;;;;;;5054182;28;20342;-77
2022/03/01 05:12:54;;;;;;;;;;;-0.90;74.90;;;;;;5070769;28;19923;-77
2022/03/01 05:15:25;;;;;;;;;;;-0.90;74.00;;;;;;5054801;28;19909;-77
2022/03/01 05:17:51;;;;;;;;;;;-1.30;74.80;;;;;;5054822;28;19967;-77
2022/03/01 05:20:17;;;;;;;;;;;-1.40;75.90;;;;;;5070349;28;19909;-77
2022/03/01 05:22:43;;;;;;;;;;;-1.40;75.90;;;;;;5054724;28;19976;-77
2022/03/01 05:25:09;;;;;;;;;;;-1.50;76.50;;;;;;5035514;28;19912;-77
2022/03/01 05:27:36;;;;;;;;;;;-1.40;76.70;;;;;;5054152;28;20006;-77
2022/03/01 05:30:02;;;;;;;;;;;-1.50;75.90;;;;;;5053071;28;19912;-77
2022/03/01 05:32:27;;;;;;;;;;;-1.50;76.40;;;;;;5054591;28;19935;-77
2022/03/01 05:34:53;;;;;;;;;;;-1.40;76.70;;;;;;5054228;28;19909;-77
2022/03/01 05:37:19;;;;;;;;;;;-1.50;76.10;;;;;;5052909;28;19908;-77
2022/03/01 05:39:44;;;;;;;;;;;-1.50;76.60;;;;;;5054018;28;20080;-77
2022/03/01 05:42:10;;;;;;;;;;;-1.40;76.80;;;;;;5053406;28;19909;-77
2022/03/01 05:44:36;;;;;;;;;;;-1.40;76.50;;;;;;5051214;28;19921;-76
2022/03/01 05:47:01;;;;;;;;;;;-1.70;76.40;;;;;;5053774;28;20285;-77
2022/03/01 05:49:27;;;;;;;;;;;-1.80;78.10;;;;;;5054432;28;19908;-77
2022/03/01 05:51:52;;;;;;;;;;;-1.80;77.70;;;;;;5054078;28;19908;-77
2022/03/01 05:54:19;;;;;;;;;;;-1.80;78.10;;;;;;5052777;28;20288;-77
2022/03/01 05:56:44;;;;;;;;;;;-1.80;78.30;;;;;;5054195;28;19951;-77
2022/03/01 05:59:10;;;;;;;;;;;-1.60;78.10;;;;;;5053138;28;19954;-77
2022/03/01 06:01:35;;;;;;;;;;;-1.40;76.70;;;;;;5054999;28;19909;-77
2022/03/01 06:04:01;;;;;;;;;;;-1.50;76.80;;;;;;5054208;28;20323;-77
2022/03/01 06:06:27;;;;;;;;;;;-1.50;77.00;;;;;;5053905;28;19921;-77
2022/03/01 06:08:52;;;;;;;;;;;-1.50;76.80;;;;;;5054715;28;19909;-77
2022/03/01 06:11:18;;;;;;;;;;;-1.60;77.10;;;;;;5036682;28;20330;-77
2022/03/01 06:13:43;;;;;;;;;;;-1.60;77.20;;;;;;5053931;28;19919;-77
2022/03/01 06:16:09;;;;;;;;;;;-1.40;77.00;;;;;;5053275;28;19916;-77
2022/03/01 06:18:35;;;;;;;;;;;-1.50;76.80;;;;;;5052674;28;20283;-77
2022/03/01 06:21:01;;;;;;;;;;;-1.60;76.30;;;;;;5035832;28;19909;-77
2022/03/01 06:23:28;;;;;;;;;;;-1.40;77.40;;;;;;5060756;28;19909;-77
2022/03/01 06:25:53;;;;;;;;;;;-1.20;76.10;;;;;;5069217;28;19908;-77
2022/03/01 06:28:19;;;;;;;;;;;-1.00;76.00;;;;;;5060443;28;19935;-77
2022/03/01 06:30:45;;;;;;;;;;;-1.00;75.40;;;;;;5062442;28;20265;-76
2022/03/01 06:33:11;;;;;;;;;;;-1.00;74.60;;;;;;5081029;28;20376;-77
2022/03/01 06:35:36;;;;;;;;;;;-1.10;74.70;;;;;;5067256;28;20331;-77
2022/03/01 06:38:02;;;;;;;;;;;-1.20;75.00;;;;;;5067327;28;20345;-76
2022/03/01 06:40:28;;;;;;;;;;;-1.30;75.40;;;;;;5078815;28;20333;-76
2022/03/01 06:42:55;;;;;;;;;;;-1.30;76.20;;;;;;5078208;28;19908;-77
2022/03/01 06:45:21;;;;;;;;;;;-1.30;76.20;;;;;;5059800;28;19951;-77
2022/03/01 06:47:46;;;;;;;;;;;-1.30;76.20;;;;;;5061019;28;19908;-78
2022/03/01 06:50:12;;;;;;;;;;;-1.10;76.10;;;;;;5062776;28;19932;-77
2022/03/01 06:52:38;;;;;;;;;;;-1.30;76.10;;;;;;5057603;28;20368;-76
2022/03/01 06:55:05;;;;;;;;;;;-1.20;76.10;;;;;;5068597;28;20398;-77
2022/03/01 06:57:31;;;;;;;;;;;-1.10;76.10;;;;;;5059395;28;19931;-77
2022/03/01 06:59:57;;;;;;;;;;;-1.00;76.40;;;;;;5080210;28;19908;-77
2022/03/01 07:02:25;;;;;;;;;;;-0.90;75.50;;;;;;5077044;28;19909;-77
2022/03/01 07:04:51;;;;;;;;;;;-0.80;75.10;;;;;;5060644;28;19943;-76
2022/03/01 07:07:16;;;;;;;;;;;-1.10;75.30;;;;;;5075803;28;19920;-76
2022/03/01 07:09:42;;;;;;;;;;;-1.20;76.60;;;;;;5058268;28;19909;-77
2022/03/01 07:12:08;;;;;;;;;;;-1.10;76.50;;;;;;5074673;28;20283;-77
2022/03/01 07:14:33;;;;;;;;;;;-1.00;76.20;;;;;;5073998;28;20012;-77
2022/03/01 07:16:59;;;;;;;;;;;-1.20;76.70;;;;;;5075198;28;19916;-77
2022/03/01 07:19:25;;;;;;;;;;;-1.20;77.10;;;;;;5057093;28;19916;-77
2022/03/01 07:21:50;;;;;;;;;;;-1.40;77.10;;;;;;5040962;23;19929;-72
2022/03/01 07:24:16;;;;;;;;;;;-1.30;78.10;;;;;;5020361;28;19910;-72
2022/03/01 07:26:42;;;;;;;;;;;-1.10;77.30;;;;;;5030539;28;20023;-73
2022/03/01 07:29:07;;;;;;;;;;;-1.10;77.60;;;;;;5014186;28;19913;-73
2022/03/01 07:31:33;;;;;;;;;;;-1.30;77.40;;;;;;4996937;28;19948;-73
2022/03/01 07:33:59;;;;;;;;;;;-1.10;77.60;;;;;;5013120;28;20292;-73
2022/03/01 07:36:24;;;;;;;;;;;-1.00;77.00;;;;;;5013007;28;19909;-73
2022/03/01 07:38:50;;;;;;;;;;;-0.90;77.00;;;;;;5014342;28;20004;-72
2022/03/01 07:41:16;;;;;;;;;;;-0.70;76.40;;;;;;5013394;28;19909;-73
2022/03/01 07:43:41;;;;;;;;;;;-0.80;75.80;;;;;;5013437;28;19917;-73
2022/03/01 07:46:11;;;;;;;;;;;-0.80;76.30;;;;;;5012534;28;19935;-73
2022/03/01 07:48:41;;;;;;;;;;;-0.80;76.40;;;;;;5012704;28;19916;-73
2022/03/01 07:51:07;;;;;;;;;;;-0.80;77.50;;;;;;5013159;28;19909;-73
2022/03/01 07:53:32;;;;;;;;;;;-0.50;77.30;;;;;;4995369;28;19928;-73
2022/03/01 07:55:58;;;;;;;;;;;-0.40;77.10;;;;;;5012110;28;19940;-73
2022/03/01 07:58:24;;;;;;;;;;;-0.30;76.50;;;;;;5011710;28;19917;-73
2022/03/01 08:00:49;;;;;;;;;;;-0.20;76.70;;;;;;5014634;28;19921;-73
2022/03/01 08:03:15;;;;;;;;;;;-0.10;75.90;;;;;;5011491;28;19976;-73
2022/03/01 08:05:41;;;;;;;;;;;0.00;76.30;;;;;;5012211;28;20004;-73
2022/03/01 08:08:07;;;;;;;;;;;0.10;76.40;;;;;;5011548;28;20524;-73
2022/03/01 08:10:32;;;;;;;;;;;0.20;76.20;;;;;;5012410;28;19913;-73
2022/03/01 08:12:58;;;;;;;;;;;0.20;75.80;;;;;;5011921;28;19914;-73
2022/03/01 08:15:26;;;;;;;;;;;0.30;75.90;;;;;;5012519;28;19971;-73
2022/03/01 08:17:52;;;;;;;;;;;0.50;75.70;;;;;;5010942;28;19910;-73
2022/03/01 08:20:18;;;;;;;;;;;0.50;75.40;;;;;;4995150;28;19910;-73
2022/03/01 08:22:44;;;;;;;;;;;0.50;75.50;;;;;;5012238;28;19914;-73
2022/03/01 08:25:10;;;;;;;;;;;0.70;75.30;;;;;;5010985;28;20250;-73
2022/03/01 08:27:36;;;;;;;;;;;0.80;74.60;;;;;;5011806;28;19910;-73
2022/03/01 08:30:02;;;;;;;;;;;0.80;75.10;;;;;;5011205;28;19937;-73
2022/03/01 08:32:27;;;;;;;;;;;0.90;74.50;;;;;;5011873;28;20344;-73
2022/03/01 08:34:53;;;;;;;;;;;0.90;73.00;;;;;;5010931;28;19913;-73
2022/03/01 08:37:18;;;;;;;;;;;0.90;72.10;;;;;;5011953;28;20349;-73
2022/03/01 08:39:44;;;;;;;;;;;0.80;72.00;;;;;;5011045;28;19948;-73
2022/03/01 08:42:10;;;;;;;;;;;0.90;72.40;;;;;;5010198;28;20019;-73
2022/03/01 08:44:36;;;;;;;;;;;1.10;71.40;;;;;;5011985;28;19910;-73
2022/03/01 08:47:02;;;;;;;;;;;1.30;71.00;;;;;;5010152;28;19933;-73
2022/03/01 08:49:27;;;;;;;;;;;1.60;70.80;;;;;;5010827;28;19921;-73
2022/03/01 08:51:53;;;;;;;;;;;1.70;69.90;;;;;;5011530;28;19956;-73
2022/03/01 08:54:19;;;;;;;;;;;1.90;68.50;;;;;;5012024;28;19917;-73
2022/03/01 08:56:44;;;;;;;;;;;2.00;68.40;;;;;;5009867;28;19914;-73
2022/03/01 08:59:10;;;;;;;;;;;2.20;67.70;;;;;;5010862;28;20369;-73
2022/03/01 09:01:36;;;;;;;;;;;2.20;66.50;;;;;;5010211;28;19910;-73
2022/03/01 09:04:02;;;;;;;;;;;2.30;66.30;;;;;;5011778;28;20082;-73
2022/03/01 09:06:27;;;;;;;;;;;2.40;65.30;;;;;;5011698;28;20335;-74
2022/03/01 09:08:53;;;;;;;;;;;2.50;65.70;;;;;;5011984;28;19917;-74
2022/03/01 09:11:19;;;;;;;;;;;2.70;62.90;;;;;;5011840;28;19909;-73
2022/03/01 09:13:44;;;;;;;;;;;2.80;62.80;;;;;;5009429;28;20012;-74
2022/03/01 09:16:10;;;;;;;;;;;3.00;62.70;;;;;;5012072;28;20356;-74
2022/03/01 09:18:36;;;;;;;;;;;3.20;62.60;;;;;;5012288;28;19910;-73
2022/03/01 09:21:03;;;;;;;;;;;3.30;61.50;;;;;;5012680;28;19917;-72
2022/03/01 09:23:28;;;;;;;;;;;3.50;61.00;;;;;;5012372;28;19984;-72
2022/03/01 09:25:54;;;;;;;;;;;3.60;60.10;;;;;;5012521;28;19949;-71
2022/03/01 09:28:20;;;;;;;;;;;3.80;59.70;;;;;;5010938;28;19917;-72
2022/03/01 09:30:45;;;;;;;;;;;4.10;59.00;;;;;;5012777;28;19964;-72
2022/03/01 09:33:11;;;;;;;;;;;4.30;59.40;;;;;;5012097;28;20376;-72
2022/03/01 09:35:36;;;;;;;;;;;4.60;60.20;;;;;;5012502;28;19931;-72
2022/03/01 09:38:02;;;;;;;;;;;5.00;59.80;;;;;;5013038;28;19909;-72
2022/03/01 09:40:28;;;;;;;;;;;5.30;58.60;;;;;;5013020;28;19965;-72
2022/03/01 09:42:54;;;;;;;;;;;5.40;57.60;;;;;;5012135;28;19916;-72
2022/03/01 09:45:20;;;;;;;;;;;5.80;55.60;;;;;;5012355;28;20328;-72
2022/03/01 09:47:46;;;;;;;;;;;6.20;53.90;;;;;;5012172;28;19959;-72
2022/03/01 09:50:13;;;;;;;;;;;6.50;54.60;;;;;;5012535;28;19956;-72
2022/03/01 09:52:39;;;;;;;;;;;6.60;55.40;;;;;;5012342;28;20769;-72
2022/03/01 09:55:05;;;;;;;;;;;6.80;54.80;;;;;;4995018;28;20369;-72
2022/03/01 09:57:31;;;;;;;;;;;7.00;53.50;;;;;;5010474;28;19917;-72
2022/03/01 09:59:57;;;;;;;;;;;7.20;53.90;;;;;;5011478;28;20439;-72
2022/03/01 10:02:36;;;;;;;;;;;7.20;53.80;;;;;;5010448;28;19909;-72
2022/03/01 10:05:02;;;;;;;;;;;7.40;53.50;;;;;;5011931;28;19913;-72
2022/03/01 10:07:29;;;;;;;;;;;7.30;52.50;;;;;;4993807;28;19949;-72
2022/03/01 10:10:03;;;;;;;;;;;7.90;51.50;;;;;;5010722;28;19917;-73
2022/03/01 10:12:29;;;;;;;;;;;8.10;49.30;;;;;;5016018;28;20384;-72
2022/03/01 10:14:58;;;;;;;;;;;8.40;49.00;;;;;;5014430;28;20004;-73
2022/03/01 10:17:24;;;;;;;;;;;8.40;48.60;;;;;;5000382;28;20160;-72
2022/03/01 10:19:59;;;;;;;;;;;8.50;48.20;;;;;;5014002;28;20420;-72
2022/03/01 10:22:25;;;;;;;;;;;9.00;47.60;;;;;;5014049;28;19917;-72
2022/03/01 10:24:50;;;;;;;;;;;8.90;46.70;;;;;;5015056;28;20000;-72
2022/03/01 10:27:26;;;;;;;;;;;8.80;46.00;;;;;;5017625;28;20365;-72
2022/03/01 10:29:51;;;;;;;;;;;9.10;45.90;;;;;;5014101;28;19990;-73
2022/03/01 10:32:17;;;;;;;;;;;9.70;45.90;;;;;;4997842;28;19952;-73
2022/03/01 10:35:00;;;;;;;;;;;10.20;45.40;;;;;;5013268;28;19920;-72
2022/03/01 10:37:30;;;;;;;;;;;10.00;45.10;;;;;;5014302;28;20289;-72
2022/03/01 10:40:28;;;;;;;;;;;10.40;45.70;;;;;;5013727;28;19909;-72
2022/03/01 10:43:01;;;;;;;;;;;10.70;44.90;;;;;;4971717;28;19963;-72
2022/03/01 10:45:34;;;;;;;;;;;10.80;44.80;;;;;;5014587;28;19960;-72
2022/03/01 10:48:00;;;;;;;;;;;11.00;45.00;;;;;;5011394;28;19968;-72
2022/03/01 10:50:26;;;;;;;;;;;11.10;44.80;;;;;;5013942;28;19910;-73
2022/03/01 10:52:51;;;;;;;;;;;11.20;44.80;;;;;;5014444;28;19914;-72
2022/03/01 10:55:22;;;;;;;;;;;11.30;44.30;;;;;;5013837;28;19913;-72
2022/03/01 10:58:02;;;;;;;;;;;11.50;44.50;;;;;;5003907;28;19914;-72
2022/03/01 11:00:28;;;;;;;;;;;11.70;44.00;;;;;;5015765;28;19910;-72
2022/03/01 11:02:54;;;;;;;;;;;11.90;42.90;;;;;;5014683;28;19960;-72
2022/03/01 11:05:20;;;;;;;;;;;11.80;44.00;;;;;;5014785;28;19913;-72
2022/03/01 11:07:47;;;;;;;;;;;12.30;43.20;;;;;;5015246;28;20003;-73
2022/03/01 11:10:13;;;;;;;;;;;12.50;42.40;;;;;;5025458;28;19941;-72
2022/03/01 11:12:40;;;;;;;;;;;12.80;41.40;;;;;;5015529;28;19910;-73
2022/03/01 11:15:12;;;;;;;;;;;12.40;41.70;;;;;;5016754;28;20016;-73
2022/03/01 11:17:37;;;;;;;;;;;12.70;40.60;;;;;;5026248;28;19916;-73
2022/03/01 11:20:06;;;;;;;;;;;12.80;39.90;;;;;;5036007;28;20295;-72
2022/03/01 11:22:41;;;;;;;;;;;12.90;38.50;;;;;;5027372;28;19924;-72
2022/03/01 11:25:14;;;;;;;;;;;12.80;38.40;;;;;;5030473;28;19910;-73
2022/03/01 11:27:44;;;;;;;;;;;12.50;38.80;;;;;;5015030;28;19971;-73
2022/03/01 11:30:10;;;;;;;;;;;12.90;37.80;;;;;;5014479;28;19913;-72
2022/03/01 11:32:37;;;;;;;;;;;12.90;37.30;;;;;;5015929;28;19956;-72
2022/03/01 11:35:03;;;;;;;;;;;12.60;35.90;;;;;;4998926;28;19909;-72
2022/03/01 11:37:29;;;;;;;;;;;12.80;36.60;;;;;;4998587;28;19967;-72
2022/03/01 11:39:56;;;;;;;;;;;12.50;35.70;;;;;;5016460;28;19952;-72
2022/03/01 11:42:22;;;;;;;;;;;12.50;36.20;;;;;;5021562;28;19910;-72
2022/03/01 11:44:49;;;;;;;;;;;12.90;36.60;;;;;;5035828;28;19996;-72
2022/03/01 11:47:24;;;;;;;;;;;12.90;36.30;;;;;;5035488;28;19932;-72
2022/03/01 11:49:49;;;;;;;;;;;12.80;36.30;;;;;;5034353;28;19916;-72
2022/03/01 11:52:19;;;;;;;;;;;12.50;36.30;;;;;;5034191;28;20356;-72
2022/03/01 11:54:46;;;;;;;;;;;13.20;35.90;;;;;;5024814;28;19918;-72
2022/03/01 11:57:12;;;;;;;;;;;13.50;34.80;;;;;;5013895;28;20261;-72
2022/03/01 11:59:38;;;;;;;;;;;14.00;34.60;;;;;;5015080;28;19914;-72
2022/03/01 12:02:05;;;;;;;;;;;14.10;34.00;;;;;;5014439;28;19910;-71
2022/03/01 12:04:31;;;;;;;;;;;14.40;34.10;;;;;;5014685;28;19916;-72
2022/03/01 12:06:57;;;;;;;;;;;14.30;33.20;;;;;;5016099;28;19949;-72
2022/03/01 12:09:26;;;;;;;;;;;14.00;33.30;;;;;;5014578;28;19910;-72
2022/03/01 12:12:03;;;;;;;;;;;13.80;33.80;;;;;;5014078;28;19960;-73
2022/03/01 12:14:30;;;;;;;;;;;13.90;34.30;;;;;;4996443;28;20357;-73
2022/03/01 12:16:55;;;;;;;;;;;14.20;33.70;;;;;;5012448;28;19909;-73
2022/03/01 12:19:22;;;;;;;;;;;13.80;33.80;;;;;;5012188;28;19909;-74
2022/03/01 12:21:48;;;;;;;;;;;13.90;34.80;;;;;;5013735;28;19917;-73
2022/03/01 12:24:14;;;;;;;;;;;14.00;34.90;;;;;;4996153;28;19959;-74
2022/03/01 12:26:47;;;;;;;;;;;14.50;34.70;;;;;;4995783;28;20000;-74
2022/03/01 12:29:14;;;;;;;;;;;14.90;34.10;;;;;;5013516;28;20285;-74
2022/03/01 12:31:39;;;;;;;;;;;14.60;33.80;;;;;;5029358;28;19909;-74
2022/03/01 12:34:07;;;;;;;;;;;14.60;33.00;;;;;;5031954;28;19964;-72
2022/03/01 12:36:34;;;;;;;;;;;14.10;33.10;;;;;;5027728;28;20381;-72
2022/03/01 12:39:04;;;;;;;;;;;14.00;34.20;;;;;;5017437;28;19917;-75
2022/03/01 12:41:30;;;;;;;;;;;13.50;33.30;;;;;;5027009;28;19923;-72
2022/03/01 12:43:59;;;;;;;;;;;13.90;34.60;;;;;;5018170;28;19909;-75
2022/03/01 12:46:26;;;;;;;;;;;14.30;34.00;;;;;;5013440;28;19932;-75
2022/03/01 12:48:53;;;;;;;;;;;14.40;33.30;;;;;;5032725;28;19963;-72
2022/03/01 12:51:19;;;;;;;;;;;14.50;33.30;;;;;;5032682;28;19916;-71
2022/03/01 12:53:51;;;;;;;;;;;14.70;32.00;;;;;;5032748;28;19920;-75
2022/03/01 12:56:18;;;;;;;;;;;14.20;32.10;;;;;;5032653;28;19909;-75
2022/03/01 12:58:43;;;;;;;;;;;14.10;32.30;;;;;;5032825;28;20013;-75
2022/03/01 13:01:10;;;;;;;;;;;14.00;33.50;;;;;;5031567;28;19948;-76
2022/03/01 13:03:36;;;;;;;;;;;14.00;33.90;;;;;;5031451;28;19909;-75
2022/03/01 13:06:11;;;;;;;;;;;14.30;33.30;;;;;;5032563;28;19935;-75
2022/03/01 13:08:39;;;;;;;;;;;14.50;33.10;;;;;;5032739;28;19990;-75
2022/03/01 13:11:08;;;;;;;;;;;14.70;32.90;;;;;;5032446;28;19909;-77
2022/03/01 13:13:50;;;;;;;;;;;13.80;32.10;;;;;;5032536;28;19967;-76
2022/03/01 13:16:17;;;;;;;;;;;13.50;33.20;;;;;;5024028;28;19986;-75
2022/03/01 13:18:43;;;;;;;;;;;13.10;34.30;;;;;;5021560;28;20329;-75
2022/03/01 13:21:10;;;;;;;;;;;13.00;33.20;;;;;;5024526;28;19917;-76
2022/03/01 13:23:36;;;;;;;;;;;13.20;32.90;;;;;;5032242;28;19909;-75
2022/03/01 13:26:02;;;;;;;;;;;12.50;33.80;;;;;;5014063;28;20281;-75
2022/03/01 13:30:55;;;;;;;;;;;11.60;35.10;;;;;;5048191;28;19987;-72
2022/03/01 13:33:25;;;;;;;;;;;11.60;35.10;;;;;;5039342;28;19917;-71
2022/03/01 13:35:50;;;;;;;;;;;11.60;34.80;;;;;;5012224;28;19920;-71
2022/03/01 13:38:18;;;;;;;;;;;11.40;35.20;;;;;;5012439;28;19909;-71
2022/03/01 13:40:44;;;;;;;;;;;11.00;34.80;;;;;;5011007;28;19909;-71
2022/03/01 13:43:10;;;;;;;;;;;10.80;35.40;;;;;;5010631;28;19956;-71
2022/03/01 13:45:39;;;;;;;;;;;10.50;34.80;;;;;;4996166;28;20357;-71
2022/03/01 13:48:09;;;;;;;;;;;10.50;35.20;;;;;;5015277;28;19920;-71
2022/03/01 13:50:35;;;;;;;;;;;10.50;35.80;;;;;;5025616;28;19913;-71
2022/03/01 13:53:08;;;;;;;;;;;10.30;35.50;;;;;;5034199;28;19920;-71
2022/03/01 13:55:35;;;;;;;;;;;10.20;36.70;;;;;;5051221;28;19909;-71
2022/03/01 13:58:01;;;;;;;;;;;10.30;37.80;;;;;;5051227;28;19909;-73
2022/03/01 14:00:30;;;;;;;;;;;10.10;37.90;;;;;;5035690;28;19916;-70
2022/03/01 14:03:00;;;;;;;;;;;10.20;37.50;;;;;;5031410;28;20321;-70
2022/03/01 14:05:26;;;;;;;;;;;10.10;37.50;;;;;;5024014;28;19916;-70
2022/03/01 14:08:03;;;;;;;;;;;10.30;37.80;;;;;;5022423;28;20353;-72
2022/03/01 14:10:29;;;;;;;;;;;10.40;37.20;;;;;;5029014;28;19913;-72
2022/03/01 14:13:03;;;;;;;;;;;10.10;36.90;;;;;;5011906;28;19999;-72
2022/03/01 14:15:39;;;;;;;;;;;9.80;37.40;;;;;;5033830;28;20258;-71
2022/03/01 14:18:05;;;;;;;;;;;9.60;37.70;;;;;;5024089;28;20024;-72
2022/03/01 14:20:31;;;;;;;;;;;9.40;37.40;;;;;;5023032;28;20400;-72